createdAt,value
2023-05-19T00:00:17.499Z,43.79
2023-05-19T00:02:44.145Z,44.14
2023-05-19T00:05:10.796Z,43.58
2023-05-19T00:07:37.353Z,43.95
2023-05-19T00:10:03.880Z,43.66
2023-05-19T00:12:30.422Z,43.75
2023-05-19T00:14:57.063Z,44.03
2023-05-19T00:17:23.669Z,44.01
2023-05-19T00:19:50.233Z,43.82
2023-05-19T00:22:16.918Z,44.04
2023-05-19T00:24:43.599Z,44.04
2023-05-19T00:27:10.128Z,44.03
2023-05-19T00:29:36.734Z,43.79
2023-05-19T00:32:03.394Z,43.92
2023-05-19T00:34:31.076Z,44.13
2023-05-19T00:36:57.609Z,43.80
2023-05-19T00:39:24.099Z,43.77
2023-05-19T00:41:50.815Z,43.81
2023-05-19T00:44:17.468Z,43.77
2023-05-19T00:46:44.090Z,43.81
2023-05-19T00:49:10.708Z,44.04
2023-05-19T00:51:37.235Z,43.68
2023-05-19T00:54:03.767Z,43.64
2023-05-19T00:56:30.350Z,43.87
2023-05-19T00:58:56.934Z,43.92
2023-05-19T01:01:23.516Z,43.78
2023-05-19T01:03:50.205Z,43.89
2023-05-19T01:06:16.744Z,44.07
2023-05-19T01:08:43.248Z,44.06
2023-05-19T01:11:09.903Z,44.21
2023-05-19T01:13:36.670Z,44.07
2023-05-19T01:16:03.432Z,44.04
2023-05-19T01:18:30.068Z,44.24
2023-05-19T01:20:56.613Z,44.12
2023-05-19T01:23:23.118Z,44.20
2023-05-19T01:25:49.672Z,43.95
2023-05-19T01:28:16.224Z,44.01
2023-05-19T01:30:42.755Z,44.14
2023-05-19T01:33:09.404Z,44.04
2023-05-19T01:35:35.971Z,44.28
2023-05-19T01:38:02.572Z,43.92
2023-05-19T01:40:29.289Z,44.19
2023-05-19T01:42:57.502Z,43.98
2023-05-19T01:45:24.260Z,43.89
2023-05-19T01:47:50.839Z,44.18
2023-05-19T01:50:17.381Z,43.85
2023-05-19T01:52:43.993Z,43.80
2023-05-19T01:55:10.546Z,43.98
2023-05-19T01:57:37.112Z,44.15
2023-05-19T02:00:03.645Z,44.08
2023-05-19T02:02:30.225Z,44.04
2023-05-19T02:04:56.781Z,44.12
2023-05-19T02:07:23.314Z,44.40
2023-05-19T02:09:49.897Z,43.89
2023-05-19T02:12:16.545Z,43.76
2023-05-19T02:14:43.150Z,44.13
2023-05-19T02:17:09.740Z,44.04
2023-05-19T02:19:36.251Z,44.14
2023-05-19T02:22:02.823Z,44.00
2023-05-19T02:24:29.419Z,43.86
2023-05-19T02:26:55.890Z,43.97
2023-05-19T02:29:22.577Z,44.21
2023-05-19T02:31:49.161Z,44.34
2023-05-19T02:34:15.750Z,44.06
2023-05-19T02:36:42.335Z,43.90
2023-05-19T02:39:08.903Z,44.07
2023-05-19T02:41:35.503Z,43.96
2023-05-19T02:44:02.152Z,43.85
2023-05-19T02:46:28.874Z,43.95
2023-05-19T02:48:55.379Z,43.99
2023-05-19T02:51:21.884Z,43.98
2023-05-19T02:53:48.538Z,43.99
2023-05-19T02:56:15.146Z,44.00
2023-05-19T02:58:41.788Z,43.86
2023-05-19T03:01:08.311Z,44.23
2023-05-19T03:03:35.036Z,43.83
2023-05-19T03:06:01.721Z,44.26
2023-05-19T03:08:28.269Z,43.91
2023-05-19T03:10:54.797Z,43.67
2023-05-19T03:13:21.380Z,44.12
2023-05-19T03:15:50.923Z,44.04
2023-05-19T03:18:17.528Z,44.12
2023-05-19T03:20:44.065Z,44.08
2023-05-19T03:23:12.775Z,44.15
2023-05-19T03:25:39.291Z,44.12
2023-05-19T03:28:05.870Z,44.23
2023-05-19T03:30:32.813Z,44.09
2023-05-19T03:32:59.634Z,44.00
2023-05-19T03:35:26.279Z,44.00
2023-05-19T03:37:52.809Z,44.17
2023-05-19T03:40:19.352Z,44.13
2023-05-19T03:42:45.955Z,43.92
2023-05-19T03:45:12.485Z,44.02
2023-05-19T03:47:39.095Z,44.02
2023-05-19T03:50:05.745Z,43.83
2023-05-19T03:52:32.351Z,44.07
2023-05-19T03:55:01.782Z,43.98
2023-05-19T03:57:28.372Z,44.07
2023-05-19T03:59:54.986Z,44.12
2023-05-19T04:02:21.660Z,43.92
2023-05-19T04:04:48.261Z,44.32
2023-05-19T04:07:14.811Z,44.34
2023-05-19T04:09:41.380Z,44.43
2023-05-19T04:12:07.913Z,44.28
2023-05-19T04:14:34.529Z,44.57
2023-05-19T04:17:01.129Z,44.55
2023-05-19T04:19:27.862Z,44.62
2023-05-19T04:21:54.627Z,44.54
2023-05-19T04:24:21.283Z,44.36
2023-05-19T04:26:48.889Z,44.34
2023-05-19T04:29:15.477Z,44.28
2023-05-19T04:31:42.156Z,44.22
2023-05-19T04:34:08.844Z,44.01
2023-05-19T04:36:35.418Z,44.38
2023-05-19T04:39:01.929Z,44.45
2023-05-19T04:41:28.464Z,44.51
2023-05-19T04:43:55.051Z,44.13
2023-05-19T04:46:21.629Z,44.27
2023-05-19T04:48:51.210Z,44.13
2023-05-19T04:51:17.805Z,44.10
2023-05-19T04:53:44.307Z,43.50
2023-05-19T04:56:10.772Z,43.82
2023-05-19T04:58:37.751Z,43.39
2023-05-19T05:01:05.251Z,43.16
2023-05-19T05:03:31.986Z,42.61
2023-05-19T05:05:58.558Z,42.40
2023-05-19T05:08:28.102Z,42.18
2023-05-19T05:10:57.428Z,41.94
2023-05-19T05:13:24.033Z,41.52
2023-05-19T05:15:50.639Z,41.58
2023-05-19T05:18:17.220Z,42.11
2023-05-19T05:20:43.736Z,42.90
2023-05-19T05:23:10.246Z,42.00
2023-05-19T05:25:36.874Z,42.14
2023-05-19T05:28:03.462Z,42.59
2023-05-19T05:30:30.038Z,42.73
2023-05-19T05:32:56.713Z,42.90
2023-05-19T05:35:23.365Z,42.89
2023-05-19T05:37:49.959Z,43.00
2023-05-19T05:40:16.478Z,43.12
2023-05-19T05:42:43.056Z,43.05
2023-05-19T05:45:09.650Z,43.10
2023-05-19T05:47:36.231Z,43.36
2023-05-19T05:50:02.814Z,43.04
2023-05-19T05:52:29.345Z,43.61
2023-05-19T05:54:55.845Z,43.60
2023-05-19T05:57:22.345Z,43.11
2023-05-19T05:59:48.806Z,43.83
2023-05-19T06:02:15.326Z,43.58
2023-05-19T06:04:41.962Z,43.55
2023-05-19T06:07:08.433Z,43.87
2023-05-19T06:09:34.955Z,43.77
2023-05-19T06:12:01.480Z,43.19
2023-05-19T06:14:27.965Z,43.21
2023-05-19T06:16:54.503Z,42.94
2023-05-19T06:19:21.187Z,43.12
2023-05-19T06:21:47.828Z,43.25
2023-05-19T06:24:14.428Z,42.48
2023-05-19T06:26:40.994Z,43.13
2023-05-19T06:29:07.526Z,42.87
2023-05-19T06:31:34.156Z,42.59
2023-05-19T06:34:00.736Z,42.75
2023-05-19T06:36:27.242Z,42.72
2023-05-19T06:38:53.697Z,42.57
2023-05-19T06:41:23.043Z,42.65
2023-05-19T06:43:49.644Z,42.61
2023-05-19T06:46:16.172Z,42.69
2023-05-19T06:48:42.708Z,42.64
2023-05-19T06:51:09.319Z,42.55
2023-05-19T06:53:35.813Z,42.57
2023-05-19T06:56:02.305Z,42.58
2023-05-19T06:58:28.849Z,42.58
2023-05-19T07:00:55.428Z,42.43
2023-05-19T07:03:21.987Z,42.52
2023-05-19T07:05:48.738Z,42.51
2023-05-19T07:08:15.239Z,42.16
2023-05-19T07:10:41.797Z,42.20
2023-05-19T07:13:08.302Z,42.27
2023-05-19T07:15:34.814Z,42.33
2023-05-19T07:18:01.319Z,42.26
2023-05-19T07:20:27.799Z,42.20
2023-05-19T07:22:54.253Z,41.95
2023-05-19T07:25:20.746Z,42.02
2023-05-19T07:27:47.264Z,42.32
2023-05-19T07:30:13.834Z,42.45
2023-05-19T07:32:40.475Z,42.27
2023-05-19T07:35:07.039Z,42.88
2023-05-19T07:37:33.555Z,42.60
2023-05-19T07:40:00.100Z,42.94
2023-05-19T07:42:26.773Z,41.50
2023-05-19T07:44:53.388Z,41.43
2023-05-19T07:47:20.574Z,40.06
2023-05-19T07:49:48.090Z,41.45
2023-05-19T07:52:15.719Z,39.43
2023-05-19T07:54:42.253Z,40.25
2023-05-19T07:57:10.181Z,37.88
2023-05-19T07:59:36.725Z,38.44
2023-05-19T08:02:03.305Z,38.17
2023-05-19T08:04:29.985Z,37.54
2023-05-19T08:06:56.547Z,36.67
2023-05-19T08:09:23.079Z,38.10
2023-05-19T08:11:52.454Z,36.69
2023-05-19T08:14:18.974Z,36.15
2023-05-19T08:16:45.462Z,37.80
2023-05-19T08:19:12.531Z,36.40
2023-05-19T08:21:39.179Z,35.63
2023-05-19T08:24:05.706Z,35.77
2023-05-19T08:26:32.267Z,35.78
2023-05-19T08:28:58.834Z,35.76
2023-05-19T08:31:25.517Z,35.99
2023-05-19T08:33:52.113Z,35.53
2023-05-19T08:36:18.613Z,35.52
2023-05-19T08:38:45.165Z,36.06
2023-05-19T08:41:11.705Z,35.59
2023-05-19T08:43:38.343Z,36.18
2023-05-19T08:46:04.829Z,35.82
2023-05-19T08:48:31.378Z,36.06
2023-05-19T08:50:57.930Z,35.56
2023-05-19T08:53:33.668Z,36.01
2023-05-19T08:56:00.815Z,35.62
2023-05-19T08:58:28.734Z,35.80
2023-05-19T09:00:55.488Z,36.20
2023-05-19T09:03:23.857Z,36.18
2023-05-19T09:05:50.893Z,36.33
2023-05-19T09:08:17.499Z,35.87
2023-05-19T09:10:44.074Z,36.38
2023-05-19T09:13:10.632Z,35.76
2023-05-19T09:15:37.171Z,36.09
2023-05-19T09:18:03.797Z,36.29
2023-05-19T09:20:30.377Z,35.72
2023-05-19T09:22:56.922Z,36.02
2023-05-19T09:25:23.504Z,36.43
2023-05-19T09:27:50.055Z,36.26
2023-05-19T09:30:16.652Z,36.28
2023-05-19T09:32:43.931Z,36.08
2023-05-19T09:35:10.674Z,36.16
2023-05-19T09:37:37.233Z,35.80
2023-05-19T09:40:03.821Z,35.94
2023-05-19T09:42:30.377Z,35.83
2023-05-19T09:44:56.892Z,35.69
2023-05-19T09:47:23.508Z,35.04
2023-05-19T09:49:50.071Z,35.01
2023-05-19T09:52:16.674Z,35.40
2023-05-19T09:54:43.199Z,35.02
2023-05-19T09:57:09.681Z,35.28
2023-05-19T09:59:36.175Z,35.09
2023-05-19T10:02:03.123Z,35.75
2023-05-19T10:04:29.946Z,35.70
2023-05-19T10:06:56.508Z,35.90
2023-05-19T10:09:23.072Z,35.80
2023-05-19T10:11:49.641Z,36.07
2023-05-19T10:14:16.146Z,36.23
2023-05-19T10:16:42.776Z,36.12
2023-05-19T10:19:09.410Z,36.72
2023-05-19T10:21:35.979Z,36.53
2023-05-19T10:24:02.505Z,36.81
2023-05-19T10:26:29.047Z,36.80
2023-05-19T10:28:55.599Z,36.92
2023-05-19T10:31:22.189Z,37.03
2023-05-19T10:33:48.764Z,37.80
2023-05-19T10:36:15.264Z,37.33
2023-05-19T10:38:41.838Z,37.48
2023-05-19T10:41:08.848Z,37.34
2023-05-19T10:43:35.442Z,37.35
2023-05-19T10:46:02.090Z,38.20
2023-05-19T10:48:28.634Z,38.20
2023-05-19T10:50:55.148Z,38.14
2023-05-19T10:53:21.684Z,38.54
2023-05-19T10:55:48.202Z,38.33
2023-05-19T10:58:14.780Z,37.98
2023-05-19T11:00:41.366Z,38.31
2023-05-19T11:03:07.953Z,38.56
2023-05-19T11:05:34.693Z,38.63
2023-05-19T11:08:01.417Z,38.53
2023-05-19T11:10:27.999Z,38.62
2023-05-19T11:12:54.539Z,38.31
2023-05-19T11:15:20.992Z,38.36
2023-05-19T11:17:47.518Z,38.49
2023-05-19T11:20:14.216Z,38.24
2023-05-19T11:22:40.733Z,38.31
2023-05-19T11:25:09.995Z,38.26
2023-05-19T11:27:36.568Z,38.32
2023-05-19T11:30:03.115Z,38.61
2023-05-19T11:32:29.788Z,38.54
2023-05-19T11:34:56.458Z,38.58
2023-05-19T11:37:22.939Z,38.68
2023-05-19T11:39:49.474Z,38.18
2023-05-19T11:42:15.982Z,38.25
2023-05-19T11:44:42.501Z,38.41
2023-05-19T11:47:09.058Z,38.27
2023-05-19T11:49:35.625Z,38.14
2023-05-19T11:52:02.173Z,38.30
2023-05-19T11:54:28.709Z,38.23
2023-05-19T11:56:55.761Z,38.47
2023-05-19T11:59:22.296Z,38.24
2023-05-19T12:01:48.816Z,38.20
2023-05-19T12:04:15.376Z,38.19
2023-05-19T12:06:41.971Z,38.50
2023-05-19T12:09:08.608Z,38.42
2023-05-19T12:11:35.173Z,38.38
2023-05-19T12:14:01.702Z,38.36
2023-05-19T12:16:28.229Z,38.03
2023-05-19T12:18:54.860Z,38.02
2023-05-19T12:21:21.453Z,37.74
2023-05-19T12:23:47.925Z,37.67
2023-05-19T12:26:14.456Z,37.65
2023-05-19T12:28:40.929Z,37.27
2023-05-19T12:31:07.481Z,37.25
2023-05-19T12:33:35.605Z,37.30
2023-05-19T12:36:02.523Z,36.84
2023-05-19T12:38:29.093Z,37.05
2023-05-19T12:40:55.673Z,37.29
2023-05-19T12:43:22.259Z,37.09
2023-05-19T12:45:48.929Z,36.80
2023-05-19T12:48:15.452Z,36.53
2023-05-19T12:50:42.124Z,36.51
2023-05-19T12:53:08.745Z,36.08
2023-05-19T12:55:35.250Z,36.52
2023-05-19T12:58:01.728Z,36.45
2023-05-19T13:00:28.664Z,36.23
2023-05-19T13:02:55.716Z,36.06
2023-05-19T13:05:22.388Z,35.85
2023-05-19T13:07:48.832Z,35.89
2023-05-19T13:10:15.284Z,35.82
2023-05-19T13:12:41.784Z,35.51
2023-05-19T13:15:08.361Z,35.66
2023-05-19T13:17:34.983Z,35.77
2023-05-19T13:20:01.493Z,36.01
2023-05-19T13:22:28.063Z,35.40
2023-05-19T13:24:54.569Z,35.40
2023-05-19T13:27:21.127Z,35.85
2023-05-19T13:29:47.680Z,35.38
2023-05-19T13:32:14.195Z,35.78
2023-05-19T13:34:40.911Z,35.17
2023-05-19T13:37:07.733Z,35.21
2023-05-19T13:39:34.895Z,35.07
2023-05-19T13:42:01.378Z,35.21
2023-05-19T13:44:27.837Z,35.97
2023-05-19T13:46:54.421Z,34.90
2023-05-19T13:49:20.926Z,35.20
2023-05-19T13:51:47.443Z,34.92
2023-05-19T13:54:14.019Z,34.70
2023-05-19T13:56:40.509Z,34.77
2023-05-19T13:59:07.019Z,34.73
2023-05-19T14:01:33.608Z,34.52
2023-05-19T14:04:00.993Z,34.74
2023-05-19T14:06:27.803Z,34.58
2023-05-19T14:08:54.340Z,34.93
2023-05-19T14:11:20.921Z,34.13
2023-05-19T14:13:47.416Z,34.31
2023-05-19T14:16:13.980Z,34.61
2023-05-19T14:18:40.665Z,34.64
2023-05-19T14:21:07.230Z,34.22
2023-05-19T14:23:33.778Z,34.58
2023-05-19T14:26:00.267Z,34.46
2023-05-19T14:28:26.842Z,34.89
2023-05-19T14:30:53.333Z,34.38
2023-05-19T14:33:19.825Z,34.68
2023-05-19T14:35:46.301Z,34.54
2023-05-19T14:38:12.841Z,34.48
2023-05-19T14:40:39.415Z,34.74
2023-05-19T14:43:05.939Z,34.56
2023-05-19T14:45:32.455Z,35.24
2023-05-19T14:47:59.024Z,34.70
2023-05-19T14:50:26.877Z,34.48
2023-05-19T14:52:54.340Z,34.28
2023-05-19T14:55:20.915Z,34.75
2023-05-19T14:57:47.477Z,34.87
2023-05-19T15:00:14.028Z,35.04
2023-05-19T15:02:40.624Z,34.88
2023-05-19T15:05:07.188Z,34.93
2023-05-19T15:07:33.745Z,34.72
2023-05-19T15:10:00.245Z,34.98
2023-05-19T15:12:26.753Z,34.57
2023-05-19T15:14:53.302Z,34.44
2023-05-19T15:17:19.851Z,34.76
2023-05-19T15:19:46.391Z,34.52
2023-05-19T15:22:12.875Z,34.44
2023-05-19T15:24:39.340Z,34.77
2023-05-19T15:27:05.873Z,34.66
2023-05-19T15:29:32.409Z,34.76
2023-05-19T15:31:58.935Z,35.28
2023-05-19T15:34:25.533Z,35.14
2023-05-19T15:36:52.100Z,35.14
2023-05-19T15:39:18.671Z,35.06
2023-05-19T15:41:45.213Z,35.10
2023-05-19T15:44:12.068Z,35.35
2023-05-19T15:46:38.619Z,35.03
2023-05-19T15:49:05.264Z,35.56
2023-05-19T15:51:33.045Z,35.31
2023-05-19T15:53:59.986Z,35.49
2023-05-19T15:56:26.507Z,35.55
2023-05-19T15:58:53.056Z,35.79
2023-05-19T16:01:20.206Z,35.67
2023-05-19T16:03:47.135Z,35.63
2023-05-19T16:06:13.821Z,35.58
2023-05-19T16:08:40.325Z,35.56
2023-05-19T16:11:06.834Z,35.71
2023-05-19T16:13:33.395Z,35.63
2023-05-19T16:16:00.001Z,35.89
2023-05-19T16:18:26.631Z,35.99
2023-05-19T16:20:53.178Z,36.05
2023-05-19T16:23:19.682Z,36.09
2023-05-19T16:25:46.175Z,35.95
2023-05-19T16:28:12.693Z,36.27
2023-05-19T16:30:39.161Z,36.19
2023-05-19T16:33:05.770Z,36.47
2023-05-19T16:35:32.437Z,36.40
2023-05-19T16:37:59.027Z,36.25
2023-05-19T16:40:25.602Z,35.92
2023-05-19T16:42:52.064Z,35.93
2023-05-19T16:45:18.582Z,35.74
2023-05-19T16:47:45.131Z,36.04
2023-05-19T16:50:11.681Z,36.38
2023-05-19T16:52:38.388Z,35.92
2023-05-19T16:55:04.888Z,35.98
2023-05-19T16:57:31.395Z,35.78
2023-05-19T16:59:57.977Z,36.48
2023-05-19T17:02:24.485Z,36.22
2023-05-19T17:04:51.119Z,36.26
2023-05-19T17:07:17.656Z,36.49
2023-05-19T17:09:44.154Z,36.78
2023-05-19T17:12:10.635Z,37.17
2023-05-19T17:14:37.204Z,36.88
2023-05-19T17:17:03.814Z,37.07
2023-05-19T17:19:30.413Z,37.34
2023-05-19T17:21:56.977Z,37.14
2023-05-19T17:24:23.523Z,37.37
2023-05-19T17:26:50.508Z,38.76
2023-05-19T17:29:17.333Z,37.34
2023-05-19T17:31:43.872Z,37.59
2023-05-19T17:34:10.476Z,37.67
2023-05-19T17:36:37.105Z,37.65
2023-05-19T17:39:03.610Z,38.36
2023-05-19T17:41:30.063Z,37.89
2023-05-19T17:43:56.569Z,37.90
2023-05-19T17:46:23.080Z,38.03
2023-05-19T17:48:49.570Z,37.99
2023-05-19T17:51:16.122Z,37.85
2023-05-19T17:53:42.709Z,38.14
2023-05-19T17:56:09.217Z,38.25
2023-05-19T17:58:35.768Z,37.76
2023-05-19T18:01:02.312Z,38.06
2023-05-19T18:03:29.127Z,38.20
2023-05-19T18:05:55.757Z,38.25
2023-05-19T18:08:22.308Z,37.92
2023-05-19T18:10:48.887Z,37.97
2023-05-19T18:13:15.384Z,38.03
2023-05-19T18:15:42.040Z,37.91
2023-05-19T18:18:08.624Z,38.08
2023-05-19T18:20:35.453Z,38.27
2023-05-19T18:23:02.436Z,38.30
2023-05-19T18:25:29.071Z,38.34
2023-05-19T18:27:55.713Z,38.36
2023-05-19T18:30:22.244Z,38.32
2023-05-19T18:32:48.828Z,38.05
2023-05-19T18:35:15.375Z,38.29
2023-05-19T18:37:41.877Z,38.22
2023-05-19T18:40:08.432Z,38.17
2023-05-19T18:42:35.047Z,38.38
2023-05-19T18:45:01.535Z,38.31
2023-05-19T18:47:28.074Z,38.53
2023-05-19T18:49:54.644Z,38.56
2023-05-19T18:52:21.259Z,38.55
2023-05-19T18:54:47.792Z,38.41
2023-05-19T18:57:14.301Z,38.69
2023-05-19T18:59:40.781Z,38.46
2023-05-19T19:02:07.467Z,38.40
2023-05-19T19:04:34.010Z,38.70
2023-05-19T19:07:00.547Z,38.66
2023-05-19T19:09:27.043Z,39.34
2023-05-19T19:11:53.599Z,39.33
2023-05-19T19:14:20.202Z,39.50
2023-05-19T19:16:46.794Z,39.61
2023-05-19T19:19:13.454Z,40.02
2023-05-19T19:21:40.118Z,39.43
2023-05-19T19:24:06.679Z,39.47
2023-05-19T19:26:33.198Z,39.04
2023-05-19T19:28:59.671Z,39.72
2023-05-19T19:31:26.291Z,39.81
2023-05-19T19:33:52.780Z,39.63
2023-05-19T19:36:19.343Z,40.38
2023-05-19T19:38:45.904Z,40.35
2023-05-19T19:41:12.431Z,40.34
2023-05-19T19:43:39.040Z,40.61
2023-05-19T19:46:05.611Z,40.90
2023-05-19T19:48:32.135Z,40.58
2023-05-19T19:50:58.723Z,40.50
2023-05-19T19:53:25.208Z,40.45
2023-05-19T19:55:51.763Z,40.65
2023-05-19T19:58:18.286Z,40.83
2023-05-19T20:00:44.852Z,40.82
2023-05-19T20:03:11.503Z,40.80
2023-05-19T20:05:38.006Z,40.77
2023-05-19T20:08:04.552Z,41.06
2023-05-19T20:10:31.128Z,41.09
2023-05-19T20:12:57.765Z,39.93
2023-05-19T20:15:24.341Z,39.93
2023-05-19T20:17:50.962Z,40.54
2023-05-19T20:20:17.571Z,40.33
2023-05-19T20:22:44.170Z,40.64
2023-05-19T20:25:10.766Z,40.47
2023-05-19T20:27:37.337Z,41.12
2023-05-19T20:30:03.983Z,41.53
2023-05-19T20:32:30.610Z,41.04
2023-05-19T20:34:57.180Z,40.91
2023-05-19T20:37:23.764Z,41.18
2023-05-19T20:39:50.372Z,42.54
2023-05-19T20:42:16.926Z,41.81
2023-05-19T20:44:43.649Z,42.25
2023-05-19T20:47:10.318Z,43.26
2023-05-19T20:49:36.933Z,43.20
2023-05-19T20:52:03.531Z,43.69
2023-05-19T20:54:30.123Z,43.23
2023-05-19T20:56:56.740Z,44.05
2023-05-19T20:59:23.337Z,43.92
2023-05-19T21:01:49.977Z,44.02
2023-05-19T21:04:16.587Z,43.91
2023-05-19T21:06:43.237Z,43.97
2023-05-19T21:09:09.885Z,44.30
2023-05-19T21:11:36.491Z,44.07
2023-05-19T21:14:03.124Z,44.37
2023-05-19T21:16:29.812Z,44.07
2023-05-19T21:18:56.483Z,44.46
2023-05-19T21:21:23.109Z,44.44
2023-05-19T21:23:49.688Z,44.28
2023-05-19T21:26:16.229Z,44.07
2023-05-19T21:28:42.738Z,44.42
2023-05-19T21:31:09.333Z,44.55
2023-05-19T21:33:35.927Z,44.52
2023-05-19T21:36:02.488Z,44.22
2023-05-19T21:38:29.134Z,44.60
2023-05-19T21:40:55.730Z,44.65
2023-05-19T21:43:22.330Z,44.75
2023-05-19T21:45:48.941Z,44.52
2023-05-19T21:48:15.538Z,44.53
2023-05-19T21:50:42.075Z,44.53
2023-05-19T21:53:08.582Z,44.47
2023-05-19T21:55:35.182Z,44.59
2023-05-19T21:58:02.723Z,44.22
2023-05-19T22:00:29.707Z,44.22
2023-05-19T22:02:56.534Z,44.24
2023-05-19T22:05:23.253Z,44.54
2023-05-19T22:07:49.866Z,44.41
2023-05-19T22:10:16.397Z,44.37
2023-05-19T22:12:42.921Z,44.42
2023-05-19T22:15:09.514Z,44.33
2023-05-19T22:17:36.102Z,44.55
2023-05-19T22:20:02.740Z,44.49
2023-05-19T22:22:29.288Z,44.44
2023-05-19T22:24:55.886Z,44.33
2023-05-19T22:27:22.423Z,44.19
2023-05-19T22:29:48.996Z,44.60
2023-05-19T22:32:15.607Z,44.17
2023-05-19T22:34:42.232Z,44.54
2023-05-19T22:37:08.839Z,43.94
2023-05-19T22:39:35.434Z,43.98
2023-05-19T22:42:01.964Z,44.04
2023-05-19T22:44:28.558Z,44.13
2023-05-19T22:46:55.100Z,44.16
2023-05-19T22:49:21.690Z,43.93
2023-05-19T22:51:48.267Z,44.42
2023-05-19T22:54:14.874Z,44.36
2023-05-19T22:56:41.878Z,44.36
2023-05-19T22:59:09.255Z,44.51
2023-05-19T23:01:35.831Z,44.17
2023-05-19T23:04:02.516Z,44.28
2023-05-19T23:06:29.144Z,44.06
2023-05-19T23:08:55.746Z,44.16
2023-05-19T23:11:22.336Z,44.36
2023-05-19T23:13:48.924Z,44.43
2023-05-19T23:16:15.436Z,44.26
2023-05-19T23:18:42.102Z,44.05
2023-05-19T23:21:08.669Z,44.22
2023-05-19T23:23:35.203Z,44.26
2023-05-19T23:26:01.812Z,44.27
2023-05-19T23:28:28.409Z,44.02
2023-05-19T23:30:55.047Z,44.04
2023-05-19T23:33:21.659Z,44.37
2023-05-19T23:35:48.222Z,44.38
2023-05-19T23:38:14.837Z,44.41
2023-05-19T23:40:41.392Z,44.20
2023-05-19T23:43:07.966Z,43.97
2023-05-19T23:45:34.693Z,43.95
2023-05-19T23:48:01.525Z,44.15
2023-05-19T23:50:28.195Z,44.35
2023-05-19T23:52:54.813Z,44.52
2023-05-19T23:55:21.399Z,44.31
2023-05-19T23:57:47.991Z,43.99
